createdAt,value
2017-09-04T00:00:55.985Z,12.8
2017-09-04T00:01:57.601Z,12.7
2017-09-04T00:02:59.225Z,12.7
2017-09-04T00:04:00.834Z,12.7
2017-09-04T00:05:02.445Z,12.7
2017-09-04T00:06:04.074Z,12.7
2017-09-04T00:07:05.698Z,12.7
2017-09-04T00:08:07.308Z,12.7
2017-09-04T00:09:08.923Z,12.7
2017-09-04T00:10:10.545Z,12.7
2017-09-04T00:11:12.163Z,12.7
2017-09-04T00:12:13.785Z,12.7
2017-09-04T00:13:15.395Z,12.7
2017-09-04T00:14:17.010Z,12.7
2017-09-04T00:15:18.635Z,12.7
2017-09-04T00:16:20.255Z,12.7
2017-09-04T00:17:21.869Z,12.6
2017-09-04T00:18:23.482Z,12.6
2017-09-04T00:19:25.110Z,12.6
2017-09-04T00:20:26.725Z,12.6
2017-09-04T00:21:28.338Z,12.5
2017-09-04T00:22:29.961Z,12.6
2017-09-04T00:23:31.570Z,12.6
2017-09-04T00:24:33.194Z,12.5
2017-09-04T00:25:34.806Z,12.5
2017-09-04T00:26:36.420Z,12.5
2017-09-04T00:27:38.045Z,12.5
2017-09-04T00:28:39.656Z,12.5
2017-09-04T00:29:41.271Z,12.6
2017-09-04T00:30:42.888Z,12.5
2017-09-04T00:31:44.504Z,12.4
2017-09-04T00:32:46.116Z,12.4
2017-09-04T00:33:47.734Z,12.5
2017-09-04T00:34:49.359Z,12.4
2017-09-04T00:35:50.966Z,12.5
2017-09-04T00:36:52.589Z,12.4
2017-09-04T00:37:54.205Z,12.5
2017-09-04T00:38:55.816Z,12.5
2017-09-04T00:39:57.444Z,12.3
2017-09-04T00:40:59.060Z,12.4
2017-09-04T00:42:00.673Z,12.3
2017-09-04T00:43:02.283Z,12.4
2017-09-04T00:44:03.900Z,12.2
2017-09-04T00:45:05.514Z,12.4
2017-09-04T00:46:07.130Z,12.3
2017-09-04T00:47:08.757Z,12.2
2017-09-04T00:48:10.384Z,12.2
2017-09-04T00:49:11.991Z,12.2
2017-09-04T00:50:13.607Z,12.2
2017-09-04T00:51:15.225Z,12.2
2017-09-04T00:52:16.847Z,12.2
2017-09-04T00:53:18.459Z,12.2
2017-09-04T00:54:20.118Z,12.2
2017-09-04T00:55:21.692Z,12.1
2017-09-04T00:56:23.312Z,12.2
2017-09-04T00:57:24.923Z,12.1
2017-09-04T00:58:26.537Z,12.1
2017-09-04T00:59:28.161Z,12.1
2017-09-04T01:00:29.777Z,12.0
2017-09-04T01:01:31.397Z,12.1
2017-09-04T01:02:33.008Z,12.1
2017-09-04T01:03:34.621Z,12.1
2017-09-04T01:04:36.237Z,12.0
2017-09-04T01:05:37.860Z,12.0
2017-09-04T01:06:39.500Z,12.0
2017-09-04T01:07:41.096Z,12.0
2017-09-04T01:08:42.719Z,12.0
2017-09-04T01:09:44.328Z,12.0
2017-09-04T01:10:45.941Z,12.0
2017-09-04T01:11:47.567Z,12.0
2017-09-04T01:12:49.193Z,12.0
2017-09-04T01:13:50.806Z,12.0
2017-09-04T01:14:52.423Z,12.0
2017-09-04T01:15:54.044Z,12.0
2017-09-04T01:16:55.666Z,11.9
2017-09-04T01:17:57.282Z,11.9
2017-09-04T01:18:58.897Z,11.9
2017-09-04T01:20:00.543Z,11.9
2017-09-04T01:21:02.144Z,11.9
2017-09-04T01:22:03.766Z,11.9
2017-09-04T01:23:05.383Z,11.9
2017-09-04T01:24:06.995Z,11.9
2017-09-04T01:25:08.613Z,11.8
2017-09-04T01:26:10.236Z,11.9
2017-09-04T01:27:11.848Z,12.0
2017-09-04T01:28:13.466Z,11.9
2017-09-04T01:29:15.093Z,11.9
2017-09-04T01:30:16.712Z,11.8
2017-09-04T01:31:18.322Z,11.9
2017-09-04T01:32:19.935Z,11.9
2017-09-04T01:33:21.548Z,11.9
2017-09-04T01:34:23.159Z,11.9
2017-09-04T01:35:24.782Z,11.8
2017-09-04T01:36:26.404Z,11.9
2017-09-04T01:37:28.022Z,11.9
2017-09-04T01:38:29.637Z,11.9
2017-09-04T01:39:31.260Z,11.9
2017-09-04T01:40:32.877Z,11.9
2017-09-04T01:41:34.501Z,11.9
2017-09-04T01:42:36.120Z,11.9
2017-09-04T01:43:37.734Z,11.9
2017-09-04T01:44:39.351Z,11.9
2017-09-04T01:45:40.968Z,11.9
2017-09-04T01:46:42.573Z,11.9
2017-09-04T01:47:44.182Z,11.8
2017-09-04T01:48:45.798Z,11.9
2017-09-04T01:49:47.408Z,11.9
2017-09-04T01:50:49.015Z,11.9
2017-09-04T01:51:50.626Z,11.8
2017-09-04T01:52:52.235Z,11.8
2017-09-04T01:53:53.847Z,11.8
2017-09-04T01:54:55.452Z,11.7
2017-09-04T01:55:57.066Z,11.8
2017-09-04T01:56:58.675Z,11.7
2017-09-04T01:58:00.284Z,11.7
2017-09-04T01:59:01.895Z,11.7
2017-09-04T02:00:03.509Z,11.7
2017-09-04T02:01:05.120Z,11.6
2017-09-04T02:02:06.729Z,11.7
2017-09-04T02:03:08.345Z,11.6
2017-09-04T02:04:09.956Z,11.5
2017-09-04T02:05:11.566Z,11.5
2017-09-04T02:06:13.174Z,11.6
2017-09-04T02:07:14.788Z,11.6
2017-09-04T02:08:16.398Z,11.6
2017-09-04T02:09:18.008Z,11.6
2017-09-04T02:10:19.615Z,11.6
2017-09-04T02:11:21.229Z,11.6
2017-09-04T02:12:22.839Z,11.6
2017-09-04T02:13:24.456Z,11.5
2017-09-04T02:14:26.060Z,11.6
2017-09-04T02:15:27.673Z,11.4
2017-09-04T02:16:29.286Z,11.5
2017-09-04T02:17:30.894Z,11.5
2017-09-04T02:18:32.503Z,11.5
2017-09-04T02:19:34.118Z,11.5
2017-09-04T02:20:35.735Z,11.4
2017-09-04T02:21:37.343Z,11.4
2017-09-04T02:22:38.948Z,11.4
2017-09-04T02:23:40.561Z,11.4
2017-09-04T02:24:42.172Z,11.5
2017-09-04T02:25:43.779Z,11.4
2017-09-04T02:26:45.393Z,11.4
2017-09-04T02:27:47.008Z,11.4
2017-09-04T02:28:48.614Z,11.5
2017-09-04T02:29:50.224Z,11.5
2017-09-04T02:30:51.840Z,11.5
2017-09-04T02:31:53.451Z,11.5
2017-09-04T02:32:55.058Z,11.5
2017-09-04T02:33:56.670Z,11.5
2017-09-04T02:34:58.283Z,11.5
2017-09-04T02:35:59.889Z,11.5
2017-09-04T02:37:01.500Z,11.5
2017-09-04T02:38:03.115Z,11.4
2017-09-04T02:39:04.721Z,11.4
2017-09-04T02:40:06.335Z,11.4
2017-09-04T02:41:07.948Z,11.5
2017-09-04T02:42:09.557Z,11.5
2017-09-04T02:43:11.170Z,11.5
2017-09-04T02:44:12.781Z,11.5
2017-09-04T02:45:14.393Z,11.4
2017-09-04T02:46:15.998Z,11.5
2017-09-04T02:47:17.607Z,11.5
2017-09-04T02:48:19.218Z,11.5
2017-09-04T02:49:20.837Z,11.4
2017-09-04T02:50:22.447Z,11.5
2017-09-04T02:51:24.053Z,11.4
2017-09-04T02:52:25.667Z,11.4
2017-09-04T02:53:27.278Z,11.5
2017-09-04T02:54:28.884Z,11.4
2017-09-04T02:55:30.496Z,11.4
2017-09-04T02:56:32.112Z,11.4
2017-09-04T02:57:33.718Z,11.4
2017-09-04T02:58:35.327Z,11.4
2017-09-04T02:59:36.939Z,11.4
2017-09-04T03:00:38.547Z,11.4
2017-09-04T03:01:40.157Z,11.4
2017-09-04T03:02:41.773Z,11.4
2017-09-04T03:03:43.381Z,11.4
2017-09-04T03:04:44.989Z,11.4
2017-09-04T03:05:46.603Z,11.4
2017-09-04T03:06:48.216Z,11.4
2017-09-04T03:07:49.822Z,11.3
2017-09-04T03:08:51.438Z,11.3
2017-09-04T03:09:53.052Z,11.4
2017-09-04T03:10:54.662Z,11.4
2017-09-04T03:11:56.276Z,11.4
2017-09-04T03:12:57.882Z,11.5
2017-09-04T03:13:59.491Z,11.5
2017-09-04T03:15:01.159Z,11.5
2017-09-04T03:16:02.775Z,11.5
2017-09-04T03:17:04.384Z,11.6
2017-09-04T03:18:05.996Z,11.5
2017-09-04T03:19:07.611Z,11.4
2017-09-04T03:20:09.224Z,11.5
2017-09-04T03:21:10.828Z,11.5
2017-09-04T03:22:12.443Z,11.5
2017-09-04T03:23:14.072Z,11.6
2017-09-04T03:24:15.689Z,11.6
2017-09-04T03:25:17.295Z,11.7
2017-09-04T03:26:18.900Z,11.6
2017-09-04T03:27:20.515Z,11.6
2017-09-04T03:28:22.128Z,11.6
2017-09-04T03:29:23.738Z,11.6
2017-09-04T03:30:25.345Z,11.7
2017-09-04T03:31:26.961Z,11.5
2017-09-04T03:32:28.568Z,11.6
2017-09-04T03:33:30.178Z,11.6
2017-09-04T03:34:31.792Z,11.6
2017-09-04T03:35:33.404Z,11.6
2017-09-04T03:36:35.010Z,11.6
2017-09-04T03:37:36.626Z,11.6
2017-09-04T03:38:38.239Z,11.6
2017-09-04T03:39:39.847Z,11.6
2017-09-04T03:40:41.456Z,11.6
2017-09-04T03:41:43.070Z,11.6
2017-09-04T03:42:44.685Z,11.6
2017-09-04T03:43:46.290Z,11.6
2017-09-04T03:44:47.902Z,11.6
2017-09-04T03:45:49.518Z,11.6
2017-09-04T03:46:51.132Z,11.5
2017-09-04T03:47:52.739Z,11.5
2017-09-04T03:48:54.351Z,11.5
2017-09-04T03:49:55.964Z,11.5
2017-09-04T03:50:57.571Z,11.5
2017-09-04T03:51:59.184Z,11.4
2017-09-04T03:53:00.799Z,11.4
2017-09-04T03:54:02.412Z,11.4
2017-09-04T03:55:04.026Z,11.4
2017-09-04T03:56:05.630Z,11.4
2017-09-04T03:57:07.237Z,11.3
2017-09-04T03:58:08.853Z,11.4
2017-09-04T03:59:10.466Z,11.4
2017-09-04T04:00:12.071Z,11.5
2017-09-04T04:01:13.683Z,11.5
2017-09-04T04:02:15.294Z,11.3
2017-09-04T04:03:16.904Z,11.4
2017-09-04T04:04:18.511Z,11.4
2017-09-04T04:05:20.122Z,11.5
2017-09-04T04:06:21.738Z,11.4
2017-09-04T04:07:23.346Z,11.3
2017-09-04T04:08:24.963Z,11.4
2017-09-04T04:09:26.573Z,11.4
2017-09-04T04:10:28.179Z,11.3
2017-09-04T04:11:29.790Z,11.4
2017-09-04T04:12:31.402Z,11.4
2017-09-04T04:13:33.016Z,11.4
2017-09-04T04:14:34.622Z,11.4
2017-09-04T04:15:36.231Z,11.3
2017-09-04T04:16:37.843Z,11.3
2017-09-04T04:17:39.455Z,11.4
2017-09-04T04:18:41.062Z,11.4
2017-09-04T04:19:42.672Z,11.3
2017-09-04T04:20:44.281Z,11.3
2017-09-04T04:21:45.895Z,11.3
2017-09-04T04:22:47.504Z,11.3
2017-09-04T04:23:49.119Z,11.3
2017-09-04T04:24:50.726Z,11.3
2017-09-04T04:25:52.338Z,11.3
2017-09-04T04:26:53.947Z,11.3
2017-09-04T04:27:55.556Z,11.3
2017-09-04T04:28:57.173Z,11.3
2017-09-04T04:29:58.786Z,11.3
2017-09-04T04:31:00.393Z,11.3
2017-09-04T04:32:02.003Z,11.3
2017-09-04T04:33:03.623Z,11.3
2017-09-04T04:34:05.229Z,11.2
2017-09-04T04:35:06.839Z,11.3
2017-09-04T04:36:08.451Z,11.3
2017-09-04T04:37:10.067Z,11.3
2017-09-04T04:38:11.672Z,11.2
2017-09-04T04:39:13.282Z,11.2
2017-09-04T04:40:14.893Z,11.2
2017-09-04T04:41:16.505Z,11.3
2017-09-04T04:42:18.115Z,11.2
2017-09-04T04:43:19.730Z,11.3
2017-09-04T04:44:21.347Z,11.3
2017-09-04T04:45:22.955Z,11.3
2017-09-04T04:46:24.564Z,11.3
2017-09-04T04:47:26.188Z,11.2
2017-09-04T04:48:27.800Z,11.2
2017-09-04T04:49:29.410Z,11.2
2017-09-04T04:50:31.030Z,11.2
2017-09-04T04:51:32.640Z,11.2
2017-09-04T04:52:34.253Z,11.2
2017-09-04T04:53:35.867Z,11.2
2017-09-04T04:54:37.477Z,11.2
2017-09-04T04:55:39.095Z,11.1
2017-09-04T04:56:40.710Z,11.2
2017-09-04T04:57:42.323Z,11.2
2017-09-04T04:58:43.943Z,11.3
2017-09-04T04:59:45.552Z,11.2
2017-09-04T05:00:47.162Z,11.3
2017-09-04T05:01:48.779Z,11.3
2017-09-04T05:02:50.396Z,11.3
2017-09-04T05:03:52.008Z,11.2
2017-09-04T05:04:53.621Z,11.3
2017-09-04T05:05:55.238Z,11.3
2017-09-04T05:06:56.850Z,11.2
2017-09-04T05:07:58.465Z,11.4
2017-09-04T05:09:00.078Z,11.2
2017-09-04T05:10:01.687Z,11.3
2017-09-04T05:11:03.302Z,11.3
2017-09-04T05:12:04.923Z,11.4
2017-09-04T05:13:06.540Z,11.4
2017-09-04T05:14:08.152Z,11.4
2017-09-04T05:15:09.772Z,11.4
2017-09-04T05:16:11.386Z,11.5
2017-09-04T05:17:13.001Z,11.6
2017-09-04T05:18:14.620Z,11.6
2017-09-04T05:19:16.238Z,11.7
2017-09-04T05:20:17.856Z,11.7
2017-09-04T05:21:19.470Z,11.8
2017-09-04T05:22:21.083Z,11.8
2017-09-04T05:23:22.702Z,11.9
2017-09-04T05:24:24.316Z,11.9
2017-09-04T05:25:25.936Z,11.9
2017-09-04T05:26:27.554Z,12.0
2017-09-04T05:27:29.170Z,12.0
2017-09-04T05:28:30.784Z,12.1
2017-09-04T05:29:32.399Z,12.0
2017-09-04T05:30:34.225Z,12.0
2017-09-04T05:31:35.826Z,12.1
2017-09-04T05:32:37.448Z,12.1
2017-09-04T05:33:39.060Z,12.2
2017-09-04T05:34:40.677Z,12.2
2017-09-04T05:35:42.300Z,12.3
2017-09-04T05:36:43.907Z,12.3
2017-09-04T05:37:45.536Z,12.4
2017-09-04T05:38:47.988Z,12.4
2017-09-04T05:39:49.615Z,12.5
2017-09-04T05:40:51.227Z,12.5
2017-09-04T05:41:52.845Z,12.4
2017-09-04T05:42:54.455Z,12.5
2017-09-04T05:43:56.072Z,12.4
2017-09-04T05:44:57.685Z,12.5
2017-09-04T05:45:59.297Z,12.6
2017-09-04T05:47:00.919Z,12.6
2017-09-04T05:48:02.535Z,12.7
2017-09-04T05:49:04.160Z,12.8
2017-09-04T05:50:05.778Z,12.8
2017-09-04T05:51:07.390Z,12.7
2017-09-04T05:52:09.002Z,12.8
2017-09-04T05:53:10.623Z,12.8
2017-09-04T05:54:12.240Z,12.8
2017-09-04T05:55:13.855Z,12.7
2017-09-04T05:56:15.473Z,12.9
2017-09-04T05:57:17.084Z,12.9
2017-09-04T05:58:18.695Z,12.9
2017-09-04T05:59:20.315Z,12.9
2017-09-04T06:00:21.930Z,12.9
2017-09-04T06:01:23.544Z,12.9
2017-09-04T06:02:25.163Z,13.0
2017-09-04T06:03:26.784Z,13.0
2017-09-04T06:04:28.400Z,13.1
2017-09-04T06:05:30.015Z,13.1
2017-09-04T06:06:31.630Z,13.1
2017-09-04T06:07:33.242Z,13.3
2017-09-04T06:08:34.857Z,13.4
2017-09-04T06:09:36.471Z,13.8
2017-09-04T06:10:38.098Z,14.2
2017-09-04T06:11:39.713Z,14.7
2017-09-04T06:12:41.324Z,15.4
2017-09-04T06:13:42.946Z,15.7
2017-09-04T06:14:44.565Z,15.8
2017-09-04T06:15:46.175Z,16.1
2017-09-04T06:16:47.793Z,16.4
2017-09-04T06:17:49.408Z,16.5
2017-09-04T06:18:51.026Z,16.9
2017-09-04T06:19:52.643Z,17.7
2017-09-04T06:20:54.258Z,18.4
2017-09-04T06:21:55.877Z,19.0
2017-09-04T06:22:57.499Z,19.3
2017-09-04T06:23:59.111Z,19.2
2017-09-04T06:25:00.729Z,19.3
2017-09-04T06:26:02.352Z,19.2
2017-09-04T06:27:03.972Z,19.4
2017-09-04T06:28:05.586Z,19.6
2017-09-04T06:29:07.207Z,19.7
2017-09-04T06:30:08.826Z,19.4
2017-09-04T06:31:10.445Z,19.2
2017-09-04T06:32:12.073Z,19.0
2017-09-04T06:33:13.691Z,18.9
2017-09-04T06:34:15.314Z,18.8
2017-09-04T06:35:16.931Z,18.6
2017-09-04T06:36:18.557Z,18.5
2017-09-04T06:37:20.181Z,18.4
2017-09-04T06:38:21.800Z,18.2
2017-09-04T06:39:23.421Z,18.4
2017-09-04T06:41:02.219Z,18.7
2017-09-04T06:42:03.835Z,18.9
2017-09-04T06:43:55.533Z,19.5
2017-09-04T06:44:57.158Z,20.2
2017-09-04T06:46:48.880Z,21.2
2017-09-04T06:47:50.504Z,21.8
2017-09-04T06:49:42.206Z,22.2
2017-09-04T06:50:43.825Z,22.5
2017-09-04T06:52:35.554Z,24.0
2017-09-04T06:53:37.179Z,24.7
2017-09-04T06:55:28.882Z,25.7
2017-09-04T06:56:30.508Z,26.1
2017-09-04T06:58:22.238Z,27.5
2017-09-04T06:59:23.865Z,28.0
2017-09-04T07:01:15.573Z,28.5
2017-09-04T07:02:17.199Z,29.1
2017-09-04T07:04:08.937Z,29.0
2017-09-04T07:05:10.558Z,29.7
2017-09-04T07:07:02.267Z,30.3
2017-09-04T07:08:03.895Z,30.6
2017-09-04T07:09:55.633Z,30.9
2017-09-04T07:10:57.264Z,31.1
2017-09-04T07:12:48.968Z,32.1
2017-09-04T07:13:50.601Z,32.2
2017-09-04T07:15:42.625Z,31.1
2017-09-04T07:16:44.255Z,31.3
2017-09-04T07:18:35.962Z,31.6
2017-09-04T07:19:37.589Z,31.3
2017-09-04T07:21:29.322Z,32.2
2017-09-04T07:22:30.956Z,32.7
2017-09-04T07:24:22.666Z,33.3
2017-09-04T07:25:24.299Z,33.8
2017-09-04T07:27:16.043Z,33.5
2017-09-04T07:28:17.677Z,33.3
2017-09-04T07:30:09.384Z,34.2
2017-09-04T07:31:11.011Z,34.7
2017-09-04T07:33:02.762Z,35.4
2017-09-04T07:34:04.389Z,35.7
2017-09-04T07:35:56.103Z,35.0
2017-09-04T07:36:57.740Z,35.5
2017-09-04T07:38:49.477Z,35.5
2017-09-04T07:39:51.110Z,36.0
2017-09-04T07:41:42.827Z,36.5
2017-09-04T07:42:44.461Z,36.6
2017-09-04T07:44:36.212Z,37.5
2017-09-04T07:45:37.840Z,37.8
2017-09-04T07:47:29.558Z,37.8
2017-09-04T07:48:31.195Z,37.8
2017-09-04T07:50:22.944Z,37.4
2017-09-04T07:51:24.606Z,37.4
2017-09-04T07:53:16.292Z,37.5
2017-09-04T07:54:17.928Z,36.8
2017-09-04T07:56:09.713Z,37.3
2017-09-04T07:57:11.304Z,37.7
2017-09-04T07:59:03.022Z,37.8
2017-09-04T08:00:04.662Z,36.9
2017-09-04T08:01:56.410Z,36.5
2017-09-04T08:02:58.045Z,37.3
2017-09-04T08:04:49.766Z,37.6
2017-09-04T08:05:51.395Z,37.6
2017-09-04T08:07:43.137Z,38.6
2017-09-04T08:08:44.768Z,38.2
2017-09-04T08:10:36.490Z,38.1
2017-09-04T08:11:38.122Z,37.2
2017-09-04T08:13:29.880Z,38.2
2017-09-04T08:14:31.509Z,38.2
2017-09-04T08:16:23.235Z,38.1
2017-09-04T08:17:24.870Z,37.0
2017-09-04T08:19:16.625Z,37.6
2017-09-04T08:20:18.255Z,37.5
2017-09-04T08:22:09.976Z,35.9
2017-09-04T08:23:11.615Z,35.8
2017-09-04T08:25:03.352Z,36.1
2017-09-04T08:26:04.987Z,36.6
2017-09-04T08:27:56.712Z,37.4
2017-09-04T08:28:58.349Z,38.1
2017-09-04T08:30:50.107Z,38.8
2017-09-04T08:31:51.744Z,38.3
2017-09-04T08:33:43.465Z,38.5
2017-09-04T08:34:45.101Z,37.7
2017-09-04T08:36:36.850Z,37.5
2017-09-04T08:37:38.481Z,37.5
2017-09-04T08:39:30.205Z,38.2
2017-09-04T08:40:31.836Z,38.5
2017-09-04T08:42:23.585Z,38.2
2017-09-04T08:43:25.211Z,38.6
2017-09-04T08:45:16.934Z,39.0
2017-09-04T08:46:18.565Z,38.4
2017-09-04T08:48:10.322Z,38.8
2017-09-04T08:49:11.954Z,38.8
2017-09-04T08:51:03.680Z,38.7
2017-09-04T08:52:05.314Z,38.9
2017-09-04T08:53:57.064Z,38.7
2017-09-04T08:54:58.695Z,38.8
2017-09-04T08:56:50.421Z,38.0
2017-09-04T08:57:52.052Z,38.3
2017-09-04T08:59:43.805Z,37.6
2017-09-04T09:00:45.434Z,37.8
2017-09-04T09:02:38.008Z,37.9
2017-09-04T09:03:39.644Z,37.8
2017-09-04T09:05:31.395Z,37.9
2017-09-04T09:06:33.026Z,37.7
2017-09-04T09:08:24.755Z,37.2
2017-09-04T09:09:26.392Z,37.5
2017-09-04T09:11:18.149Z,37.9
2017-09-04T09:12:19.783Z,38.4
2017-09-04T09:14:11.501Z,38.4
2017-09-04T09:15:13.135Z,38.6
2017-09-04T09:17:04.875Z,38.6
2017-09-04T09:18:06.512Z,38.0
2017-09-04T09:19:58.232Z,38.4
2017-09-04T09:20:59.864Z,38.0
2017-09-04T09:22:51.621Z,37.0
2017-09-04T09:23:53.249Z,36.8
2017-09-04T09:25:44.970Z,37.0
2017-09-04T09:26:46.610Z,36.7
2017-09-04T09:28:38.364Z,36.9
2017-09-04T09:29:40.002Z,36.5
2017-09-04T09:31:31.721Z,36.6
2017-09-04T09:32:33.358Z,37.2
2017-09-04T09:34:25.111Z,37.3
2017-09-04T09:35:26.740Z,37.3
2017-09-04T09:37:18.474Z,37.7
2017-09-04T09:38:20.110Z,37.8
2017-09-04T09:40:11.864Z,37.4
2017-09-04T09:41:13.495Z,37.1
2017-09-04T09:43:05.222Z,36.0
2017-09-04T09:44:06.861Z,36.5
2017-09-04T09:45:58.610Z,36.0
2017-09-04T09:47:00.249Z,36.3
2017-09-04T09:48:51.974Z,36.5
2017-09-04T09:49:53.612Z,35.9
2017-09-04T09:51:45.367Z,36.8
2017-09-04T09:52:47.006Z,36.5
2017-09-04T09:54:38.725Z,37.1
2017-09-04T09:55:40.360Z,37.1
2017-09-04T09:57:32.968Z,36.6
2017-09-04T09:58:34.603Z,37.0
2017-09-04T10:00:26.323Z,37.9
2017-09-04T10:01:27.957Z,38.3
2017-09-04T10:03:19.711Z,37.8
2017-09-04T10:04:21.351Z,37.6
2017-09-04T10:06:13.064Z,37.6
2017-09-04T10:07:14.699Z,37.3
2017-09-04T10:09:06.459Z,37.6
2017-09-04T10:10:08.089Z,37.5
2017-09-04T10:11:59.820Z,37.7
2017-09-04T10:13:01.460Z,38.0
2017-09-04T10:14:53.212Z,38.1
2017-09-04T10:15:54.844Z,38.3
2017-09-04T10:17:47.419Z,38.5
2017-09-04T10:18:49.061Z,38.6
2017-09-04T10:20:40.813Z,38.2
2017-09-04T10:21:42.450Z,37.8
2017-09-04T10:23:34.175Z,37.8
2017-09-04T10:24:35.816Z,37.4
2017-09-04T10:26:27.574Z,37.5
2017-09-04T10:27:29.205Z,37.8
2017-09-04T10:29:20.935Z,38.2
2017-09-04T10:30:22.573Z,38.0
2017-09-04T10:32:14.329Z,38.1
2017-09-04T10:33:15.961Z,37.6
2017-09-04T10:35:07.692Z,37.8
2017-09-04T10:36:09.329Z,37.8
2017-09-04T10:38:01.090Z,37.3
2017-09-04T10:39:02.729Z,37.6
2017-09-04T10:40:54.454Z,38.4
2017-09-04T10:41:56.088Z,38.4
2017-09-04T10:43:47.846Z,38.6
2017-09-04T10:44:49.480Z,38.6
2017-09-04T10:46:42.060Z,38.7
2017-09-04T10:47:43.700Z,38.5
2017-09-04T10:49:35.454Z,38.0
2017-09-04T10:50:37.089Z,38.2
2017-09-04T10:52:28.815Z,38.2
2017-09-04T10:53:30.459Z,38.7
2017-09-04T10:55:22.211Z,38.9
2017-09-04T10:56:23.848Z,38.6
2017-09-04T10:58:15.577Z,38.2
2017-09-04T10:59:17.213Z,37.9
2017-09-04T11:01:08.976Z,38.7
2017-09-04T11:02:10.615Z,38.9
2017-09-04T11:04:02.342Z,38.9
2017-09-04T11:05:03.981Z,38.7
2017-09-04T11:06:55.733Z,38.0
2017-09-04T11:07:57.379Z,38.2
2017-09-04T11:09:49.133Z,38.9
2017-09-04T11:10:50.765Z,38.9
2017-09-04T11:12:42.520Z,38.9
2017-09-04T11:13:44.153Z,39.0
2017-09-04T11:15:35.882Z,39.3
2017-09-04T11:16:37.517Z,38.9
2017-09-04T11:18:29.400Z,38.0
2017-09-04T11:19:31.039Z,36.6
2017-09-04T11:21:22.760Z,36.5
2017-09-04T11:22:24.394Z,36.7
2017-09-04T11:24:16.153Z,36.7
2017-09-04T11:25:17.782Z,37.0
2017-09-04T11:27:09.507Z,37.4
2017-09-04T11:28:11.146Z,37.7
2017-09-04T11:30:02.897Z,38.0
2017-09-04T11:31:04.527Z,37.9
2017-09-04T11:32:56.255Z,38.5
2017-09-04T11:33:57.886Z,38.5
2017-09-04T11:35:50.492Z,37.6
2017-09-04T11:36:52.123Z,37.1
2017-09-04T11:38:43.847Z,36.2
2017-09-04T11:39:45.478Z,35.1
2017-09-04T11:41:37.239Z,35.5
2017-09-04T11:42:38.876Z,36.1
2017-09-04T11:44:30.603Z,36.9
2017-09-04T11:45:32.229Z,37.1
2017-09-04T11:47:23.979Z,36.4
2017-09-04T11:48:25.616Z,36.2
2017-09-04T11:50:17.333Z,36.6
2017-09-04T11:51:18.973Z,36.7
2017-09-04T11:53:10.728Z,37.6
2017-09-04T11:54:12.360Z,38.2
2017-09-04T11:56:04.079Z,37.7
2017-09-04T11:57:05.749Z,37.5
2017-09-04T11:58:57.458Z,38.1
2017-09-04T11:59:59.090Z,37.6
2017-09-04T12:01:50.809Z,36.6
2017-09-04T12:02:52.474Z,36.0
2017-09-04T12:04:44.185Z,36.2
2017-09-04T12:05:45.815Z,36.2
2017-09-04T12:07:37.536Z,36.1
2017-09-04T12:08:39.166Z,35.2
2017-09-04T12:10:30.922Z,34.4
2017-09-04T12:11:32.550Z,34.7
2017-09-04T12:13:24.268Z,34.7
2017-09-04T12:14:25.899Z,34.6
2017-09-04T12:16:18.486Z,35.2
2017-09-04T12:17:20.116Z,35.2
2017-09-04T12:19:11.836Z,35.5
2017-09-04T12:20:13.510Z,35.7
2017-09-04T12:22:05.212Z,35.7
2017-09-04T12:23:06.846Z,34.8
2017-09-04T12:24:58.569Z,34.8
2017-09-04T12:26:00.193Z,33.9
2017-09-04T12:27:52.787Z,34.4
2017-09-04T12:28:54.417Z,34.5
2017-09-04T12:30:46.134Z,34.7
2017-09-04T12:31:47.761Z,34.5
2017-09-04T12:33:39.497Z,33.2
2017-09-04T12:34:41.125Z,32.8
2017-09-04T12:36:32.835Z,32.0
2017-09-04T12:37:34.469Z,31.5
2017-09-04T12:39:27.059Z,31.2
2017-09-04T12:40:28.689Z,31.6
2017-09-04T12:42:20.394Z,31.8
2017-09-04T12:43:22.022Z,32.2
2017-09-04T12:45:13.765Z,32.4
2017-09-04T12:46:15.396Z,32.6
2017-09-04T12:48:07.105Z,32.8
2017-09-04T12:49:08.734Z,32.8
2017-09-04T12:51:00.470Z,31.9
2017-09-04T12:52:02.091Z,31.5
2017-09-04T12:53:53.802Z,32.3
2017-09-04T12:54:55.430Z,32.4
2017-09-04T12:56:47.171Z,32.7
2017-09-04T12:57:48.801Z,32.1
2017-09-04T12:59:40.509Z,32.0
2017-09-04T13:00:42.136Z,32.4
2017-09-04T13:02:33.897Z,32.4
2017-09-04T13:03:35.509Z,32.4
2017-09-04T13:05:27.219Z,31.5
2017-09-04T13:06:28.843Z,31.6
2017-09-04T13:08:20.573Z,31.8
2017-09-04T13:09:22.200Z,31.2
2017-09-04T13:11:13.949Z,30.6
2017-09-04T13:12:15.533Z,30.7
2017-09-04T13:14:07.261Z,31.0
2017-09-04T13:15:08.887Z,30.9
2017-09-04T13:17:01.451Z,30.6
2017-09-04T13:18:03.074Z,30.3
2017-09-04T13:19:54.802Z,29.5
2017-09-04T13:20:56.429Z,29.3
2017-09-04T13:22:48.141Z,28.6
2017-09-04T13:23:49.760Z,28.4
2017-09-04T13:25:41.495Z,27.8
2017-09-04T13:26:43.121Z,27.7
2017-09-04T13:28:34.831Z,26.8
2017-09-04T13:29:36.453Z,26.7
2017-09-04T13:31:28.184Z,26.5
2017-09-04T13:32:29.802Z,26.6
2017-09-04T13:34:21.503Z,26.7
2017-09-04T13:35:23.132Z,26.7
2017-09-04T13:37:14.859Z,26.6
2017-09-04T13:38:16.477Z,26.6
2017-09-04T13:40:08.212Z,26.4
2017-09-04T13:41:09.836Z,26.4
2017-09-04T13:43:01.536Z,26.2
2017-09-04T13:44:03.164Z,26.1
2017-09-04T13:45:55.027Z,26.0
2017-09-04T13:46:56.644Z,25.8
2017-09-04T13:48:48.350Z,25.9
2017-09-04T13:49:49.979Z,26.0
2017-09-04T13:51:41.698Z,25.6
2017-09-04T13:52:43.319Z,25.7
2017-09-04T13:54:35.020Z,25.5
2017-09-04T13:55:36.648Z,25.4
2017-09-04T13:57:28.369Z,25.2
2017-09-04T13:58:29.989Z,25.1
2017-09-04T14:00:21.691Z,25.1
2017-09-04T14:01:23.319Z,25.2
2017-09-04T14:03:15.888Z,25.3
2017-09-04T14:04:17.516Z,25.2
2017-09-04T14:06:10.208Z,25.1
2017-09-04T14:07:11.833Z,25.0
2017-09-04T14:09:03.562Z,25.2
2017-09-04T14:10:05.182Z,25.1
2017-09-04T14:11:56.880Z,25.1
2017-09-04T14:12:58.500Z,25.0
2017-09-04T14:14:50.229Z,24.9
2017-09-04T14:15:51.848Z,24.9
2017-09-04T14:17:43.546Z,24.9
2017-09-04T14:18:45.174Z,25.0
2017-09-04T14:20:36.895Z,25.1
2017-09-04T14:21:38.513Z,25.0
2017-09-04T14:23:30.247Z,25.0
2017-09-04T14:24:31.866Z,24.8
2017-09-04T14:26:23.571Z,24.8
2017-09-04T14:27:25.192Z,24.8
2017-09-04T14:29:16.929Z,24.7
2017-09-04T14:30:18.545Z,24.8
2017-09-04T14:32:10.247Z,24.8
2017-09-04T14:33:11.871Z,24.8
2017-09-04T14:35:03.604Z,24.8
2017-09-04T14:36:05.229Z,24.8
2017-09-04T14:37:57.913Z,24.6
2017-09-04T14:38:59.547Z,24.6
2017-09-04T14:40:51.271Z,24.6
2017-09-04T14:41:52.888Z,24.6
2017-09-04T14:43:44.598Z,24.6
2017-09-04T14:44:46.222Z,24.7
2017-09-04T14:46:37.961Z,24.7
2017-09-04T14:47:39.581Z,24.8
2017-09-04T14:49:31.287Z,24.6
2017-09-04T14:50:32.910Z,24.5
2017-09-04T14:52:24.638Z,24.5
2017-09-04T14:53:26.258Z,24.6
2017-09-04T14:55:17.962Z,24.5
2017-09-04T14:56:19.587Z,24.5
2017-09-04T14:58:11.307Z,24.4
2017-09-04T14:59:12.932Z,24.3
2017-09-04T15:01:04.636Z,24.3
2017-09-04T15:02:06.260Z,24.2
2017-09-04T15:03:57.989Z,23.9
2017-09-04T15:04:59.609Z,23.9
2017-09-04T15:06:51.309Z,23.9
2017-09-04T15:07:52.934Z,23.9
2017-09-04T15:09:44.673Z,23.9
2017-09-04T15:10:46.295Z,23.7
2017-09-04T15:12:38.843Z,23.8
2017-09-04T15:13:40.461Z,23.8
2017-09-04T15:15:32.180Z,23.9
2017-09-04T15:16:33.804Z,23.9
2017-09-04T15:18:25.501Z,24.0
2017-09-04T15:19:27.124Z,23.9
2017-09-04T15:21:18.853Z,24.0
2017-09-04T15:22:20.477Z,24.1
2017-09-04T15:24:12.174Z,23.9
2017-09-04T15:25:13.796Z,23.9
2017-09-04T15:27:05.535Z,23.8
2017-09-04T15:28:07.159Z,23.7
2017-09-04T15:29:58.854Z,23.7
2017-09-04T15:31:00.476Z,23.8
2017-09-04T15:32:52.198Z,23.6
2017-09-04T15:33:53.821Z,23.6
2017-09-04T15:36:28.338Z,23.5
2017-09-04T15:37:29.960Z,23.6
2017-09-04T15:39:21.688Z,23.5
2017-09-04T15:40:23.311Z,23.5
2017-09-04T15:42:15.017Z,23.5
2017-09-04T15:43:16.635Z,23.5
2017-09-04T15:45:08.356Z,23.5
2017-09-04T15:46:09.981Z,23.5
2017-09-04T15:48:02.678Z,23.4
2017-09-04T15:49:04.295Z,23.4
2017-09-04T15:50:56.024Z,23.3
2017-09-04T15:51:57.648Z,23.3
2017-09-04T15:53:49.344Z,23.2
2017-09-04T15:54:50.970Z,23.2
2017-09-04T15:56:42.697Z,23.0
2017-09-04T15:57:44.321Z,23.0
2017-09-04T15:59:36.020Z,22.9
2017-09-04T16:00:37.642Z,22.9
2017-09-04T16:02:29.365Z,22.8
2017-09-04T16:03:30.979Z,22.8
2017-09-04T16:05:22.678Z,22.9
2017-09-04T16:06:24.333Z,22.9
2017-09-04T16:08:16.031Z,22.7
2017-09-04T16:09:17.645Z,22.7
2017-09-04T16:11:09.352Z,22.5
2017-09-04T16:12:10.967Z,22.5
2017-09-04T16:14:02.703Z,22.4
2017-09-04T16:15:04.324Z,22.4
2017-09-04T16:16:56.020Z,22.5
2017-09-04T16:17:57.642Z,22.5
2017-09-04T16:19:49.364Z,22.4
2017-09-04T16:20:51.008Z,22.5
2017-09-04T16:22:42.676Z,22.4
2017-09-04T16:23:44.298Z,22.4
2017-09-04T16:25:36.011Z,22.4
2017-09-04T16:26:37.645Z,22.4
2017-09-04T16:28:29.346Z,22.4
2017-09-04T16:29:30.972Z,22.4
2017-09-04T16:31:22.696Z,22.4
2017-09-04T16:32:24.315Z,22.4